sensor_id;sensor_type;location;lat;lon;timestamp;P1;durP1;ratioP1;P2;durP2;ratioP2
65174;SDS011;51761;42.126;24.752;2023-05-10T00:02:07;23.30;;;7.45;;
65174;SDS011;51761;42.126;24.752;2023-05-10T00:04:32;9.10;;;6.40;;
65174;SDS011;51761;42.126;24.752;2023-05-10T00:06:58;13.65;;;6.32;;
65174;SDS011;51761;42.126;24.752;2023-05-10T00:09:24;13.48;;;6.20;;
65174;SDS011;51761;42.126;24.752;2023-05-10T00:11:49;11.93;;;6.30;;
65174;SDS011;51761;42.126;24.752;2023-05-10T00:14:15;11.80;;;6.20;;
65174;SDS011;51761;42.126;24.752;2023-05-10T00:16:41;8.65;;;5.72;;
65174;SDS011;51761;42.126;24.752;2023-05-10T00:19:07;10.45;;;6.28;;
65174;SDS011;51761;42.126;24.752;2023-05-10T00:21:32;18.20;;;6.72;;
65174;SDS011;51761;42.126;24.752;2023-05-10T00:23:58;11.85;;;6.88;;
65174;SDS011;51761;42.126;24.752;2023-05-10T00:26:24;16.15;;;6.50;;
65174;SDS011;51761;42.126;24.752;2023-05-10T00:28:50;11.07;;;6.75;;
65174;SDS011;51761;42.126;24.752;2023-05-10T00:31:16;10.20;;;6.50;;
65174;SDS011;51761;42.126;24.752;2023-05-10T00:33:41;11.30;;;6.13;;
65174;SDS011;51761;42.126;24.752;2023-05-10T00:36:07;10.95;;;6.50;;
65174;SDS011;51761;42.126;24.752;2023-05-10T00:38:33;12.23;;;6.82;;
65174;SDS011;51761;42.126;24.752;2023-05-10T00:40:58;13.00;;;7.18;;
65174;SDS011;51761;42.126;24.752;2023-05-10T00:43:24;20.77;;;7.30;;
65174;SDS011;51761;42.126;24.752;2023-05-10T00:45:49;17.05;;;7.47;;
65174;SDS011;51761;42.126;24.752;2023-05-10T00:48:15;16.67;;;6.85;;
65174;SDS011;51761;42.126;24.752;2023-05-10T00:50:41;13.98;;;7.78;;
65174;SDS011;51761;42.126;24.752;2023-05-10T00:53:07;14.68;;;6.93;;
65174;SDS011;51761;42.126;24.752;2023-05-10T00:55:33;20.73;;;8.93;;
65174;SDS011;51761;42.126;24.752;2023-05-10T00:57:59;18.10;;;7.28;;
65174;SDS011;51761;42.126;24.752;2023-05-10T01:00:25;15.90;;;7.05;;
65174;SDS011;51761;42.126;24.752;2023-05-10T01:02:50;14.93;;;6.80;;
65174;SDS011;51761;42.126;24.752;2023-05-10T01:05:18;15.93;;;7.43;;
65174;SDS011;51761;42.126;24.752;2023-05-10T01:07:44;13.82;;;6.18;;
65174;SDS011;51761;42.126;24.752;2023-05-10T01:10:09;11.70;;;6.95;;
65174;SDS011;51761;42.126;24.752;2023-05-10T01:12:37;15.98;;;6.18;;
65174;SDS011;51761;42.126;24.752;2023-05-10T01:15:07;10.32;;;6.90;;
65174;SDS011;51761;42.126;24.752;2023-05-10T01:17:35;14.82;;;7.13;;
65174;SDS011;51761;42.126;24.752;2023-05-10T01:20:03;14.68;;;6.82;;
65174;SDS011;51761;42.126;24.752;2023-05-10T01:36:18;14.82;;;7.47;;
65174;SDS011;51761;42.126;24.752;2023-05-10T01:39:02;12.98;;;7.78;;
65174;SDS011;51761;42.126;24.752;2023-05-10T01:47:11;21.20;;;11.40;;
65174;SDS011;51761;42.126;24.752;2023-05-10T01:49:41;14.93;;;8.50;;
65174;SDS011;51761;42.126;24.752;2023-05-10T01:52:15;18.15;;;9.55;;
65174;SDS011;51761;42.126;24.752;2023-05-10T01:55:04;20.17;;;9.27;;
65174;SDS011;51761;42.126;24.752;2023-05-10T01:57:37;18.10;;;9.77;;
65174;SDS011;51761;42.126;24.752;2023-05-10T02:00:06;18.23;;;9.82;;
65174;SDS011;51761;42.126;24.752;2023-05-10T02:02:34;18.65;;;9.40;;
65174;SDS011;51761;42.126;24.752;2023-05-10T02:05:07;15.77;;;9.52;;
65174;SDS011;51761;42.126;24.752;2023-05-10T02:07:35;24.15;;;10.07;;
65174;SDS011;51761;42.126;24.752;2023-05-10T02:10:02;19.92;;;9.77;;
65174;SDS011;51761;42.126;24.752;2023-05-10T02:12:30;21.92;;;9.82;;
65174;SDS011;51761;42.126;24.752;2023-05-10T02:14:59;19.38;;;10.07;;
65174;SDS011;51761;42.126;24.752;2023-05-10T02:17:27;24.88;;;10.60;;
65174;SDS011;51761;42.126;24.752;2023-05-10T02:19:53;20.45;;;10.07;;
65174;SDS011;51761;42.126;24.752;2023-05-10T02:22:21;21.75;;;9.95;;
65174;SDS011;51761;42.126;24.752;2023-05-10T02:24:47;23.65;;;10.23;;
65174;SDS011;51761;42.126;24.752;2023-05-10T02:27:15;18.00;;;10.52;;
65174;SDS011;51761;42.126;24.752;2023-05-10T02:29:44;21.42;;;10.10;;
65174;SDS011;51761;42.126;24.752;2023-05-10T02:32:11;19.17;;;10.30;;
65174;SDS011;51761;42.126;24.752;2023-05-10T02:34:38;16.33;;;10.30;;
65174;SDS011;51761;42.126;24.752;2023-05-10T02:37:04;21.25;;;9.98;;
65174;SDS011;51761;42.126;24.752;2023-05-10T02:39:31;19.45;;;10.60;;
65174;SDS011;51761;42.126;24.752;2023-05-10T02:41:57;14.90;;;9.68;;
65174;SDS011;51761;42.126;24.752;2023-05-10T02:44:24;26.67;;;10.68;;
65174;SDS011;51761;42.126;24.752;2023-05-10T02:46:53;21.23;;;9.50;;
65174;SDS011;51761;42.126;24.752;2023-05-10T02:49:20;19.80;;;9.88;;
65174;SDS011;51761;42.126;24.752;2023-05-10T02:51:50;17.85;;;10.48;;
65174;SDS011;51761;42.126;24.752;2023-05-10T02:54:21;18.92;;;9.07;;
65174;SDS011;51761;42.126;24.752;2023-05-10T02:56:58;17.83;;;9.52;;
65174;SDS011;51761;42.126;24.752;2023-05-10T02:59:27;15.05;;;10.18;;
65174;SDS011;51761;42.126;24.752;2023-05-10T03:01:53;20.88;;;9.93;;
65174;SDS011;51761;42.126;24.752;2023-05-10T03:04:18;19.70;;;9.68;;
65174;SDS011;51761;42.126;24.752;2023-05-10T03:06:44;27.55;;;10.30;;
65174;SDS011;51761;42.126;24.752;2023-05-10T03:09:10;22.45;;;10.27;;
65174;SDS011;51761;42.126;24.752;2023-05-10T03:16:46;17.50;;;10.00;;
65174;SDS011;51761;42.126;24.752;2023-05-10T03:19:17;21.38;;;10.05;;
65174;SDS011;51761;42.126;24.752;2023-05-10T03:21:51;29.25;;;10.77;;
65174;SDS011;51761;42.126;24.752;2023-05-10T03:24:20;15.70;;;10.13;;
65174;SDS011;51761;42.126;24.752;2023-05-10T03:26:47;18.80;;;10.20;;
65174;SDS011;51761;42.126;24.752;2023-05-10T03:29:15;17.63;;;9.98;;
65174;SDS011;51761;42.126;24.752;2023-05-10T03:31:42;20.67;;;10.27;;
65174;SDS011;51761;42.126;24.752;2023-05-10T03:34:07;19.52;;;10.38;;
65174;SDS011;51761;42.126;24.752;2023-05-10T03:36:33;28.55;;;11.05;;
65174;SDS011;51761;42.126;24.752;2023-05-10T03:38:59;23.65;;;11.63;;
65174;SDS011;51761;42.126;24.752;2023-05-10T03:41:24;20.70;;;10.07;;
65174;SDS011;51761;42.126;24.752;2023-05-10T03:43:50;27.58;;;12.32;;
65174;SDS011;51761;42.126;24.752;2023-05-10T03:46:16;19.73;;;12.20;;
65174;SDS011;51761;42.126;24.752;2023-05-10T03:48:41;24.67;;;11.43;;
65174;SDS011;51761;42.126;24.752;2023-05-10T03:51:07;21.45;;;10.98;;
65174;SDS011;51761;42.126;24.752;2023-05-10T03:53:32;19.73;;;11.65;;
65174;SDS011;51761;42.126;24.752;2023-05-10T03:55:58;28.73;;;11.73;;
65174;SDS011;51761;42.126;24.752;2023-05-10T03:58:23;22.50;;;10.90;;
65174;SDS011;51761;42.126;24.752;2023-05-10T04:00:50;22.98;;;11.82;;
65174;SDS011;51761;42.126;24.752;2023-05-10T04:03:16;22.58;;;10.45;;
65174;SDS011;51761;42.126;24.752;2023-05-10T04:05:42;20.70;;;10.50;;
65174;SDS011;51761;42.126;24.752;2023-05-10T04:08:08;24.60;;;11.70;;
65174;SDS011;51761;42.126;24.752;2023-05-10T04:10:34;22.40;;;10.50;;
65174;SDS011;51761;42.126;24.752;2023-05-10T04:12:59;22.23;;;9.73;;
65174;SDS011;51761;42.126;24.752;2023-05-10T04:15:25;17.88;;;9.65;;
65174;SDS011;51761;42.126;24.752;2023-05-10T04:17:50;19.67;;;10.13;;
65174;SDS011;51761;42.126;24.752;2023-05-10T04:20:16;20.77;;;9.90;;
65174;SDS011;51761;42.126;24.752;2023-05-10T04:22:41;23.48;;;9.50;;
65174;SDS011;51761;42.126;24.752;2023-05-10T04:25:07;18.58;;;11.32;;
65174;SDS011;51761;42.126;24.752;2023-05-10T04:27:33;28.35;;;9.70;;
65174;SDS011;51761;42.126;24.752;2023-05-10T04:29:58;22.85;;;9.85;;
65174;SDS011;51761;42.126;24.752;2023-05-10T04:32:24;19.70;;;9.90;;
65174;SDS011;51761;42.126;24.752;2023-05-10T04:34:49;16.75;;;9.70;;
65174;SDS011;51761;42.126;24.752;2023-05-10T04:37:18;13.18;;;8.00;;
65174;SDS011;51761;42.126;24.752;2023-05-10T04:39:44;19.52;;;9.80;;
65174;SDS011;51761;42.126;24.752;2023-05-10T04:42:09;22.08;;;9.90;;
65174;SDS011;51761;42.126;24.752;2023-05-10T04:44:35;22.50;;;10.45;;
65174;SDS011;51761;42.126;24.752;2023-05-10T04:47:01;18.73;;;9.23;;
65174;SDS011;51761;42.126;24.752;2023-05-10T04:49:28;15.90;;;9.02;;
65174;SDS011;51761;42.126;24.752;2023-05-10T04:51:54;19.75;;;8.90;;
65174;SDS011;51761;42.126;24.752;2023-05-10T04:54:20;28.67;;;9.63;;
65174;SDS011;51761;42.126;24.752;2023-05-10T04:56:45;15.20;;;8.57;;
65174;SDS011;51761;42.126;24.752;2023-05-10T04:59:11;16.83;;;8.02;;
65174;SDS011;51761;42.126;24.752;2023-05-10T05:01:36;13.43;;;7.82;;
65174;SDS011;51761;42.126;24.752;2023-05-10T05:04:02;19.63;;;8.30;;
65174;SDS011;51761;42.126;24.752;2023-05-10T05:06:27;25.02;;;8.85;;
65174;SDS011;51761;42.126;24.752;2023-05-10T05:08:53;17.80;;;7.97;;
65174;SDS011;51761;42.126;24.752;2023-05-10T05:11:18;14.70;;;8.07;;
65174;SDS011;51761;42.126;24.752;2023-05-10T05:13:44;21.95;;;10.70;;
65174;SDS011;51761;42.126;24.752;2023-05-10T05:16:10;21.52;;;8.70;;
65174;SDS011;51761;42.126;24.752;2023-05-10T05:18:38;18.08;;;8.07;;
65174;SDS011;51761;42.126;24.752;2023-05-10T05:21:13;19.80;;;9.18;;
65174;SDS011;51761;42.126;24.752;2023-05-10T05:23:40;15.85;;;8.20;;
65174;SDS011;51761;42.126;24.752;2023-05-10T05:26:05;15.48;;;9.10;;
65174;SDS011;51761;42.126;24.752;2023-05-10T05:28:31;19.20;;;9.68;;
65174;SDS011;51761;42.126;24.752;2023-05-10T05:30:58;20.38;;;9.30;;
65174;SDS011;51761;42.126;24.752;2023-05-10T05:33:24;24.08;;;9.32;;
65174;SDS011;51761;42.126;24.752;2023-05-10T05:35:49;21.25;;;9.30;;
65174;SDS011;51761;42.126;24.752;2023-05-10T05:38:16;22.45;;;9.52;;
65174;SDS011;51761;42.126;24.752;2023-05-10T05:40:42;22.63;;;10.13;;
65174;SDS011;51761;42.126;24.752;2023-05-10T05:43:07;18.30;;;9.77;;
65174;SDS011;51761;42.126;24.752;2023-05-10T05:45:33;18.77;;;9.55;;
65174;SDS011;51761;42.126;24.752;2023-05-10T05:47:59;17.88;;;9.93;;
65174;SDS011;51761;42.126;24.752;2023-05-10T05:50:24;18.83;;;11.20;;
65174;SDS011;51761;42.126;24.752;2023-05-10T05:52:50;31.35;;;11.57;;
65174;SDS011;51761;42.126;24.752;2023-05-10T05:55:16;21.92;;;11.75;;
65174;SDS011;51761;42.126;24.752;2023-05-10T05:57:41;17.27;;;11.25;;
65174;SDS011;51761;42.126;24.752;2023-05-10T06:00:07;29.85;;;11.75;;
65174;SDS011;51761;42.126;24.752;2023-05-10T06:02:33;19.10;;;9.57;;
65174;SDS011;51761;42.126;24.752;2023-05-10T06:04:58;17.55;;;9.02;;
65174;SDS011;51761;42.126;24.752;2023-05-10T06:07:23;18.30;;;9.85;;
65174;SDS011;51761;42.126;24.752;2023-05-10T06:09:50;21.27;;;9.20;;
65174;SDS011;51761;42.126;24.752;2023-05-10T06:12:15;18.05;;;9.60;;
65174;SDS011;51761;42.126;24.752;2023-05-10T06:14:41;18.35;;;8.63;;
65174;SDS011;51761;42.126;24.752;2023-05-10T06:17:06;18.98;;;8.48;;
65174;SDS011;51761;42.126;24.752;2023-05-10T06:19:32;22.05;;;8.25;;
65174;SDS011;51761;42.126;24.752;2023-05-10T06:21:57;14.73;;;8.48;;
65174;SDS011;51761;42.126;24.752;2023-05-10T06:24:23;16.73;;;7.90;;
65174;SDS011;51761;42.126;24.752;2023-05-10T06:26:48;15.85;;;8.55;;
65174;SDS011;51761;42.126;24.752;2023-05-10T06:29:15;21.65;;;8.73;;
65174;SDS011;51761;42.126;24.752;2023-05-10T06:31:40;23.05;;;9.18;;
65174;SDS011;51761;42.126;24.752;2023-05-10T06:34:06;21.33;;;9.13;;
65174;SDS011;51761;42.126;24.752;2023-05-10T06:36:33;21.15;;;8.50;;
65174;SDS011;51761;42.126;24.752;2023-05-10T06:38:58;19.00;;;8.60;;
65174;SDS011;51761;42.126;24.752;2023-05-10T06:41:24;17.38;;;8.07;;
65174;SDS011;51761;42.126;24.752;2023-05-10T06:43:49;14.23;;;6.72;;
65174;SDS011;51761;42.126;24.752;2023-05-10T06:46:15;14.13;;;8.20;;
65174;SDS011;51761;42.126;24.752;2023-05-10T06:48:40;16.13;;;7.72;;
65174;SDS011;51761;42.126;24.752;2023-05-10T06:51:06;9.75;;;5.93;;
65174;SDS011;51761;42.126;24.752;2023-05-10T06:53:31;15.95;;;6.82;;
65174;SDS011;51761;42.126;24.752;2023-05-10T06:55:57;13.23;;;6.05;;
65174;SDS011;51761;42.126;24.752;2023-05-10T06:58:22;14.05;;;6.82;;
65174;SDS011;51761;42.126;24.752;2023-05-10T07:00:48;15.73;;;6.40;;
65174;SDS011;51761;42.126;24.752;2023-05-10T07:03:13;15.00;;;6.45;;
65174;SDS011;51761;42.126;24.752;2023-05-10T07:05:39;12.68;;;6.22;;
65174;SDS011;51761;42.126;24.752;2023-05-10T07:08:05;15.88;;;6.45;;
65174;SDS011;51761;42.126;24.752;2023-05-10T07:10:30;14.73;;;6.15;;
65174;SDS011;51761;42.126;24.752;2023-05-10T07:12:56;13.50;;;6.72;;
65174;SDS011;51761;42.126;24.752;2023-05-10T07:15:21;16.10;;;6.03;;
65174;SDS011;51761;42.126;24.752;2023-05-10T07:17:47;16.98;;;6.68;;
65174;SDS011;51761;42.126;24.752;2023-05-10T07:20:12;10.27;;;5.45;;
65174;SDS011;51761;42.126;24.752;2023-05-10T07:22:38;16.08;;;5.45;;
65174;SDS011;51761;42.126;24.752;2023-05-10T07:25:03;14.15;;;6.00;;
65174;SDS011;51761;42.126;24.752;2023-05-10T07:27:29;12.88;;;5.60;;
65174;SDS011;51761;42.126;24.752;2023-05-10T07:29:55;13.13;;;5.90;;
65174;SDS011;51761;42.126;24.752;2023-05-10T07:32:21;27.55;;;6.47;;
65174;SDS011;51761;42.126;24.752;2023-05-10T07:34:47;13.55;;;5.35;;
65174;SDS011;51761;42.126;24.752;2023-05-10T07:37:12;12.07;;;5.88;;
65174;SDS011;51761;42.126;24.752;2023-05-10T07:39:38;10.45;;;5.60;;
65174;SDS011;51761;42.126;24.752;2023-05-10T07:42:03;13.68;;;6.50;;
65174;SDS011;51761;42.126;24.752;2023-05-10T07:44:29;13.77;;;5.60;;
65174;SDS011;51761;42.126;24.752;2023-05-10T07:46:54;12.35;;;5.35;;
65174;SDS011;51761;42.126;24.752;2023-05-10T07:49:20;10.68;;;5.05;;
65174;SDS011;51761;42.126;24.752;2023-05-10T07:51:46;10.25;;;5.90;;
65174;SDS011;51761;42.126;24.752;2023-05-10T07:54:11;6.95;;;4.75;;
65174;SDS011;51761;42.126;24.752;2023-05-10T07:56:37;8.80;;;5.38;;
65174;SDS011;51761;42.126;24.752;2023-05-10T07:59:04;9.45;;;5.00;;
65174;SDS011;51761;42.126;24.752;2023-05-10T08:01:31;10.48;;;4.70;;
65174;SDS011;51761;42.126;24.752;2023-05-10T08:03:59;16.48;;;5.20;;
65174;SDS011;51761;42.126;24.752;2023-05-10T08:06:25;11.60;;;4.82;;
65174;SDS011;51761;42.126;24.752;2023-05-10T08:08:52;20.30;;;5.13;;
65174;SDS011;51761;42.126;24.752;2023-05-10T08:11:19;7.32;;;4.53;;
65174;SDS011;51761;42.126;24.752;2023-05-10T08:13:45;9.65;;;4.18;;
65174;SDS011;51761;42.126;24.752;2023-05-10T08:16:14;10.32;;;4.25;;
65174;SDS011;51761;42.126;24.752;2023-05-10T08:18:40;8.68;;;4.88;;
65174;SDS011;51761;42.126;24.752;2023-05-10T08:21:06;8.82;;;4.90;;
65174;SDS011;51761;42.126;24.752;2023-05-10T08:23:32;13.52;;;5.00;;
65174;SDS011;51761;42.126;24.752;2023-05-10T08:25:58;10.52;;;4.72;;
65174;SDS011;51761;42.126;24.752;2023-05-10T08:28:24;10.52;;;4.40;;
65174;SDS011;51761;42.126;24.752;2023-05-10T08:30:49;11.90;;;4.15;;
65174;SDS011;51761;42.126;24.752;2023-05-10T08:33:15;30.50;;;5.95;;
65174;SDS011;51761;42.126;24.752;2023-05-10T08:35:42;6.80;;;3.65;;
65174;SDS011;51761;42.126;24.752;2023-05-10T08:38:08;9.93;;;4.57;;
65174;SDS011;51761;42.126;24.752;2023-05-10T08:40:33;8.30;;;4.38;;
65174;SDS011;51761;42.126;24.752;2023-05-10T08:43:08;9.43;;;4.03;;
65174;SDS011;51761;42.126;24.752;2023-05-10T08:45:38;13.73;;;4.78;;
65174;SDS011;51761;42.126;24.752;2023-05-10T08:48:07;5.40;;;4.40;;
65174;SDS011;51761;42.126;24.752;2023-05-10T08:50:35;7.75;;;4.25;;
65174;SDS011;51761;42.126;24.752;2023-05-10T08:53:04;10.02;;;4.13;;
65174;SDS011;51761;42.126;24.752;2023-05-10T08:55:37;6.80;;;4.28;;
65174;SDS011;51761;42.126;24.752;2023-05-10T08:58:07;8.02;;;4.85;;
65174;SDS011;51761;42.126;24.752;2023-05-10T09:00:33;9.55;;;4.93;;
65174;SDS011;51761;42.126;24.752;2023-05-10T09:02:59;7.80;;;5.05;;
65174;SDS011;51761;42.126;24.752;2023-05-10T09:05:26;10.63;;;5.30;;
65174;SDS011;51761;42.126;24.752;2023-05-10T09:07:51;7.13;;;4.88;;
65174;SDS011;51761;42.126;24.752;2023-05-10T09:10:18;9.65;;;4.28;;
65174;SDS011;51761;42.126;24.752;2023-05-10T09:12:44;8.45;;;5.53;;
65174;SDS011;51761;42.126;24.752;2023-05-10T09:15:11;9.93;;;5.38;;
65174;SDS011;51761;42.126;24.752;2023-05-10T09:17:39;8.38;;;5.68;;
65174;SDS011;51761;42.126;24.752;2023-05-10T09:20:06;10.55;;;5.15;;
65174;SDS011;51761;42.126;24.752;2023-05-10T09:22:32;8.00;;;5.25;;
65174;SDS011;51761;42.126;24.752;2023-05-10T09:25:05;8.68;;;4.93;;
65174;SDS011;51761;42.126;24.752;2023-05-10T09:27:30;7.55;;;4.47;;
65174;SDS011;51761;42.126;24.752;2023-05-10T09:29:56;21.08;;;4.97;;
65174;SDS011;51761;42.126;24.752;2023-05-10T09:32:24;8.48;;;4.93;;
65174;SDS011;51761;42.126;24.752;2023-05-10T09:35:08;11.60;;;4.85;;
65174;SDS011;51761;42.126;24.752;2023-05-10T09:37:42;7.63;;;4.85;;
65174;SDS011;51761;42.126;24.752;2023-05-10T09:40:13;7.10;;;4.18;;
65174;SDS011;51761;42.126;24.752;2023-05-10T09:42:41;11.60;;;4.72;;
65174;SDS011;51761;42.126;24.752;2023-05-10T09:45:08;12.77;;;4.75;;
65174;SDS011;51761;42.126;24.752;2023-05-10T09:47:34;13.18;;;5.68;;
65174;SDS011;51761;42.126;24.752;2023-05-10T09:50:01;7.80;;;4.75;;
65174;SDS011;51761;42.126;24.752;2023-05-10T09:52:31;9.02;;;4.60;;
65174;SDS011;51761;42.126;24.752;2023-05-10T09:55:11;13.13;;;5.45;;
65174;SDS011;51761;42.126;24.752;2023-05-10T09:57:37;10.15;;;5.38;;
65174;SDS011;51761;42.126;24.752;2023-05-10T10:00:03;7.25;;;4.55;;
65174;SDS011;51761;42.126;24.752;2023-05-10T10:02:30;7.38;;;4.22;;
65174;SDS011;51761;42.126;24.752;2023-05-10T10:04:56;8.73;;;4.68;;
65174;SDS011;51761;42.126;24.752;2023-05-10T10:07:22;13.80;;;5.18;;
65174;SDS011;51761;42.126;24.752;2023-05-10T10:09:50;9.25;;;4.63;;
65174;SDS011;51761;42.126;24.752;2023-05-10T10:12:16;10.77;;;4.20;;
65174;SDS011;51761;42.126;24.752;2023-05-10T10:14:41;12.65;;;4.47;;
65174;SDS011;51761;42.126;24.752;2023-05-10T10:17:08;12.63;;;4.70;;
65174;SDS011;51761;42.126;24.752;2023-05-10T10:19:34;13.35;;;4.10;;
65174;SDS011;51761;42.126;24.752;2023-05-10T10:22:01;6.63;;;4.13;;
65174;SDS011;51761;42.126;24.752;2023-05-10T10:24:27;7.35;;;4.13;;
65174;SDS011;51761;42.126;24.752;2023-05-10T10:26:53;9.02;;;4.30;;
65174;SDS011;51761;42.126;24.752;2023-05-10T10:32:45;8.95;;;4.60;;
65174;SDS011;51761;42.126;24.752;2023-05-10T10:35:25;8.38;;;4.68;;
65174;SDS011;51761;42.126;24.752;2023-05-10T10:37:51;7.65;;;4.22;;
65174;SDS011;51761;42.126;24.752;2023-05-10T10:40:29;10.80;;;4.63;;
65174;SDS011;51761;42.126;24.752;2023-05-10T10:42:56;6.95;;;4.40;;
65174;SDS011;51761;42.126;24.752;2023-05-10T10:45:23;9.25;;;4.30;;
65174;SDS011;51761;42.126;24.752;2023-05-10T10:47:54;8.23;;;4.10;;
65174;SDS011;51761;42.126;24.752;2023-05-10T10:50:45;5.35;;;4.30;;
65174;SDS011;51761;42.126;24.752;2023-05-10T10:53:14;9.93;;;4.50;;
65174;SDS011;51761;42.126;24.752;2023-05-10T10:55:46;7.90;;;4.63;;
65174;SDS011;51761;42.126;24.752;2023-05-10T10:58:28;9.52;;;4.97;;
65174;SDS011;51761;42.126;24.752;2023-05-10T11:01:17;6.75;;;4.43;;
65174;SDS011;51761;42.126;24.752;2023-05-10T11:06:34;10.27;;;4.85;;
65174;SDS011;51761;42.126;24.752;2023-05-10T11:09:06;7.53;;;4.22;;
65174;SDS011;51761;42.126;24.752;2023-05-10T11:11:34;8.27;;;4.30;;
65174;SDS011;51761;42.126;24.752;2023-05-10T11:14:04;8.18;;;4.40;;
65174;SDS011;51761;42.126;24.752;2023-05-10T11:16:43;9.10;;;5.20;;
65174;SDS011;51761;42.126;24.752;2023-05-10T11:19:10;9.07;;;5.25;;
65174;SDS011;51761;42.126;24.752;2023-05-10T11:21:47;8.55;;;4.82;;
65174;SDS011;51761;42.126;24.752;2023-05-10T11:24:15;11.15;;;4.95;;
65174;SDS011;51761;42.126;24.752;2023-05-10T11:26:42;9.10;;;4.78;;
65174;SDS011;51761;42.126;24.752;2023-05-10T11:29:08;7.65;;;4.70;;
65174;SDS011;51761;42.126;24.752;2023-05-10T11:31:33;8.57;;;4.07;;
65174;SDS011;51761;42.126;24.752;2023-05-10T11:34:00;7.95;;;4.63;;
65174;SDS011;51761;42.126;24.752;2023-05-10T11:36:27;11.00;;;6.65;;
65174;SDS011;51761;42.126;24.752;2023-05-10T11:38:54;9.77;;;5.85;;
65174;SDS011;51761;42.126;24.752;2023-05-10T11:41:21;6.20;;;4.43;;
65174;SDS011;51761;42.126;24.752;2023-05-10T11:43:51;9.00;;;4.25;;
65174;SDS011;51761;42.126;24.752;2023-05-10T11:46:19;7.75;;;3.63;;
65174;SDS011;51761;42.126;24.752;2023-05-10T11:48:49;10.23;;;4.53;;
65174;SDS011;51761;42.126;24.752;2023-05-10T11:51:20;11.43;;;4.85;;
65174;SDS011;51761;42.126;24.752;2023-05-10T11:53:46;8.57;;;5.10;;
65174;SDS011;51761;42.126;24.752;2023-05-10T11:56:12;9.35;;;5.30;;
65174;SDS011;51761;42.126;24.752;2023-05-10T11:58:38;11.13;;;5.25;;
65174;SDS011;51761;42.126;24.752;2023-05-10T12:01:05;12.25;;;5.03;;
65174;SDS011;51761;42.126;24.752;2023-05-10T12:03:32;6.15;;;4.47;;
65174;SDS011;51761;42.126;24.752;2023-05-10T12:05:58;6.10;;;4.75;;
65174;SDS011;51761;42.126;24.752;2023-05-10T12:08:25;9.23;;;6.32;;
65174;SDS011;51761;42.126;24.752;2023-05-10T12:10:53;5.05;;;4.38;;
65174;SDS011;51761;42.126;24.752;2023-05-10T12:13:19;10.50;;;4.93;;
65174;SDS011;51761;42.126;24.752;2023-05-10T12:15:46;9.18;;;4.70;;
65174;SDS011;51761;42.126;24.752;2023-05-10T12:18:12;6.80;;;4.93;;
65174;SDS011;51761;42.126;24.752;2023-05-10T12:20:39;8.27;;;5.72;;
65174;SDS011;51761;42.126;24.752;2023-05-10T12:23:05;12.38;;;5.57;;
65174;SDS011;51761;42.126;24.752;2023-05-10T12:25:34;6.82;;;5.13;;
65174;SDS011;51761;42.126;24.752;2023-05-10T12:28:04;9.57;;;6.53;;
65174;SDS011;51761;42.126;24.752;2023-05-10T12:30:32;10.40;;;6.70;;
65174;SDS011;51761;42.126;24.752;2023-05-10T12:32:59;8.98;;;6.07;;
65174;SDS011;51761;42.126;24.752;2023-05-10T12:35:48;10.07;;;5.70;;
65174;SDS011;51761;42.126;24.752;2023-05-10T12:40:51;8.52;;;5.90;;
65174;SDS011;51761;42.126;24.752;2023-05-10T12:43:17;14.75;;;7.35;;
65174;SDS011;51761;42.126;24.752;2023-05-10T12:45:42;12.10;;;7.60;;
65174;SDS011;51761;42.126;24.752;2023-05-10T12:48:12;14.93;;;7.28;;
65174;SDS011;51761;42.126;24.752;2023-05-10T12:50:38;12.15;;;8.25;;
65174;SDS011;51761;42.126;24.752;2023-05-10T12:53:03;11.93;;;6.60;;
65174;SDS011;51761;42.126;24.752;2023-05-10T12:55:29;13.05;;;7.05;;
65174;SDS011;51761;42.126;24.752;2023-05-10T12:57:55;9.95;;;6.90;;
65174;SDS011;51761;42.126;24.752;2023-05-10T13:00:20;8.20;;;6.63;;
65174;SDS011;51761;42.126;24.752;2023-05-10T13:02:45;8.93;;;7.15;;
65174;SDS011;51761;42.126;24.752;2023-05-10T13:05:11;8.50;;;6.65;;
65174;SDS011;51761;42.126;24.752;2023-05-10T13:07:38;10.90;;;6.28;;
65174;SDS011;51761;42.126;24.752;2023-05-10T13:10:04;9.27;;;5.70;;
65174;SDS011;51761;42.126;24.752;2023-05-10T13:12:30;11.38;;;5.60;;
65174;SDS011;51761;42.126;24.752;2023-05-10T13:14:56;9.20;;;5.75;;
65174;SDS011;51761;42.126;24.752;2023-05-10T13:17:21;8.30;;;5.30;;
65174;SDS011;51761;42.126;24.752;2023-05-10T13:19:47;8.85;;;6.10;;
65174;SDS011;51761;42.126;24.752;2023-05-10T13:22:13;7.82;;;6.07;;
65174;SDS011;51761;42.126;24.752;2023-05-10T13:24:38;9.68;;;5.85;;
65174;SDS011;51761;42.126;24.752;2023-05-10T13:27:03;12.68;;;5.97;;
65174;SDS011;51761;42.126;24.752;2023-05-10T13:29:29;71.88;;;9.50;;
65174;SDS011;51761;42.126;24.752;2023-05-10T13:31:54;16.38;;;6.30;;
65174;SDS011;51761;42.126;24.752;2023-05-10T13:34:20;13.15;;;6.13;;
65174;SDS011;51761;42.126;24.752;2023-05-10T13:36:46;13.05;;;6.60;;
65174;SDS011;51761;42.126;24.752;2023-05-10T13:39:12;12.10;;;7.40;;
65174;SDS011;51761;42.126;24.752;2023-05-10T13:41:37;14.77;;;7.10;;
65174;SDS011;51761;42.126;24.752;2023-05-10T13:44:03;10.20;;;6.80;;
65174;SDS011;51761;42.126;24.752;2023-05-10T13:46:29;8.45;;;6.65;;
65174;SDS011;51761;42.126;24.752;2023-05-10T13:48:55;9.57;;;6.90;;
65174;SDS011;51761;42.126;24.752;2023-05-10T13:51:21;11.55;;;7.25;;
65174;SDS011;51761;42.126;24.752;2023-05-10T13:53:47;12.13;;;7.75;;
65174;SDS011;51761;42.126;24.752;2023-05-10T13:59:00;17.27;;;8.45;;
65174;SDS011;51761;42.126;24.752;2023-05-10T14:01:25;11.90;;;7.43;;
65174;SDS011;51761;42.126;24.752;2023-05-10T14:03:51;10.27;;;7.47;;
65174;SDS011;51761;42.126;24.752;2023-05-10T14:06:17;15.52;;;8.02;;
65174;SDS011;51761;42.126;24.752;2023-05-10T14:08:42;15.80;;;7.60;;
65174;SDS011;51761;42.126;24.752;2023-05-10T14:11:08;15.95;;;8.20;;
65174;SDS011;51761;42.126;24.752;2023-05-10T14:13:33;10.15;;;7.57;;
65174;SDS011;51761;42.126;24.752;2023-05-10T14:15:59;11.65;;;7.72;;
65174;SDS011;51761;42.126;24.752;2023-05-10T14:18:27;8.80;;;6.57;;
65174;SDS011;51761;42.126;24.752;2023-05-10T14:20:53;10.18;;;7.25;;
65174;SDS011;51761;42.126;24.752;2023-05-10T14:23:19;10.32;;;6.13;;
65174;SDS011;51761;42.126;24.752;2023-05-10T14:25:51;7.15;;;6.20;;
65174;SDS011;51761;42.126;24.752;2023-05-10T14:28:17;11.98;;;6.15;;
65174;SDS011;51761;42.126;24.752;2023-05-10T14:30:43;10.00;;;6.47;;
65174;SDS011;51761;42.126;24.752;2023-05-10T14:33:09;10.65;;;6.47;;
65174;SDS011;51761;42.126;24.752;2023-05-10T14:35:35;8.80;;;5.32;;
65174;SDS011;51761;42.126;24.752;2023-05-10T14:38:01;8.82;;;5.85;;
65174;SDS011;51761;42.126;24.752;2023-05-10T14:40:28;7.80;;;5.68;;
65174;SDS011;51761;42.126;24.752;2023-05-10T14:42:54;9.65;;;6.38;;
65174;SDS011;51761;42.126;24.752;2023-05-10T14:45:20;13.05;;;6.18;;
65174;SDS011;51761;42.126;24.752;2023-05-10T14:47:46;10.32;;;6.22;;
65174;SDS011;51761;42.126;24.752;2023-05-10T14:50:11;8.13;;;5.47;;
65174;SDS011;51761;42.126;24.752;2023-05-10T14:55:58;7.18;;;5.07;;
65174;SDS011;51761;42.126;24.752;2023-05-10T14:58:26;5.88;;;4.95;;
65174;SDS011;51761;42.126;24.752;2023-05-10T15:00:52;10.88;;;5.38;;
65174;SDS011;51761;42.126;24.752;2023-05-10T15:03:17;7.13;;;5.90;;